createdAt,value
2022-11-05T00:00:38.442Z,9.70
2022-11-05T00:03:25.040Z,9.70
2022-11-05T00:06:12.963Z,9.70
2022-11-05T00:08:59.799Z,9.70
2022-11-05T00:11:46.917Z,9.70
2022-11-05T00:14:33.098Z,9.70
2022-11-05T00:17:00.899Z,9.70
2022-11-05T00:19:36.437Z,9.70
2022-11-05T00:22:22.547Z,9.80
2022-11-05T00:25:10.137Z,9.80
2022-11-05T00:27:38.739Z,9.80
2022-11-05T00:30:07.756Z,9.80
2022-11-05T00:32:37.520Z,9.80
2022-11-05T00:35:08.232Z,9.80
2022-11-05T00:37:37.093Z,9.80
2022-11-05T00:40:07.253Z,9.80
2022-11-05T00:42:53.495Z,9.80
2022-11-05T00:45:21.666Z,9.80
2022-11-05T00:48:11.911Z,9.90
2022-11-05T00:50:40.041Z,9.80
2022-11-05T00:53:09.171Z,9.90
2022-11-05T00:55:42.434Z,9.90
2022-11-05T00:58:15.820Z,9.90
2022-11-05T01:00:52.445Z,10.00
2022-11-05T01:03:26.829Z,10.00
2022-11-05T01:05:55.767Z,9.90
2022-11-05T01:08:24.319Z,10.00
2022-11-05T01:10:53.456Z,9.90
2022-11-05T01:13:27.808Z,10.00
2022-11-05T01:15:56.144Z,10.00
2022-11-05T01:18:24.472Z,10.00
2022-11-05T01:20:51.984Z,9.90
2022-11-05T01:23:21.479Z,10.00
2022-11-05T01:25:49.675Z,10.00
2022-11-05T01:28:17.524Z,10.00
2022-11-05T01:30:45.462Z,10.00
2022-11-05T01:33:13.337Z,10.00
2022-11-05T01:35:41.585Z,9.90
2022-11-05T01:38:09.103Z,9.90
2022-11-05T01:40:37.057Z,9.80
2022-11-05T01:43:11.027Z,9.80
2022-11-05T01:45:39.121Z,9.90
2022-11-05T01:48:09.691Z,9.80
2022-11-05T01:50:56.413Z,9.80
2022-11-05T01:53:23.859Z,9.70
2022-11-05T01:55:56.533Z,9.70
2022-11-05T01:58:26.561Z,9.60
2022-11-05T02:00:55.310Z,9.60
2022-11-05T02:03:22.907Z,9.60
2022-11-05T02:05:53.293Z,9.50
2022-11-05T02:08:57.163Z,9.50
2022-11-05T02:11:25.305Z,9.50
2022-11-05T02:13:53.015Z,9.40
2022-11-05T02:16:28.424Z,9.40
2022-11-05T02:19:14.707Z,9.40
2022-11-05T02:22:17.039Z,9.30
2022-11-05T02:25:05.047Z,9.30
2022-11-05T02:27:32.678Z,9.30
2022-11-05T02:30:00.431Z,9.30
2022-11-05T02:32:37.626Z,9.30
2022-11-05T02:35:24.378Z,9.20
2022-11-05T02:37:54.598Z,9.10
2022-11-05T02:40:25.473Z,9.10
2022-11-05T02:42:52.949Z,9.10
2022-11-05T02:45:41.034Z,9.10
2022-11-05T02:48:30.216Z,9.00
2022-11-05T02:51:03.266Z,8.90
2022-11-05T02:53:38.880Z,8.90
2022-11-05T02:56:14.433Z,8.90
2022-11-05T02:58:41.936Z,8.90
2022-11-05T03:05:05.314Z,8.70
2022-11-05T03:07:39.207Z,8.70
2022-11-05T03:10:16.814Z,8.70
2022-11-05T03:12:50.522Z,8.60
2022-11-05T03:15:21.990Z,8.60
2022-11-05T03:18:01.121Z,8.50
2022-11-05T03:20:42.772Z,8.50
2022-11-05T03:23:20.112Z,8.40
2022-11-05T03:25:50.066Z,8.30
2022-11-05T03:28:20.031Z,8.30
2022-11-05T03:30:48.223Z,8.30
2022-11-05T03:33:18.330Z,8.20
2022-11-05T03:35:48.134Z,8.20
2022-11-05T03:38:20.128Z,8.20
2022-11-05T03:40:51.843Z,8.10
2022-11-05T03:43:20.373Z,8.10
2022-11-05T03:45:57.649Z,8.10
2022-11-05T03:48:30.616Z,8.00
2022-11-05T03:51:07.586Z,8.00
2022-11-05T03:53:38.651Z,7.90
2022-11-05T03:56:14.228Z,7.90
2022-11-05T03:58:43.086Z,7.80
2022-11-05T04:01:11.306Z,7.80
2022-11-05T04:03:39.252Z,7.70
2022-11-05T04:06:25.930Z,7.70
2022-11-05T04:09:13.848Z,7.50
2022-11-05T04:12:00.193Z,7.30
2022-11-05T04:14:33.932Z,7.20
2022-11-05T04:17:12.059Z,7.10
2022-11-05T04:20:20.375Z,7.10
2022-11-05T04:23:07.752Z,7.00
2022-11-05T04:25:35.540Z,7.00
2022-11-05T04:28:03.035Z,6.90
2022-11-05T04:30:31.154Z,7.00
2022-11-05T04:33:01.845Z,6.90
2022-11-05T04:35:31.113Z,6.80
2022-11-05T04:38:00.555Z,6.90
2022-11-05T04:40:28.437Z,6.80
2022-11-05T04:42:56.237Z,6.80
2022-11-05T04:45:25.056Z,6.90
2022-11-05T04:47:53.481Z,6.80
2022-11-05T04:50:21.914Z,6.80
2022-11-05T04:52:50.247Z,6.70
2022-11-05T04:55:18.145Z,6.80
2022-11-05T04:57:52.803Z,6.80
2022-11-05T05:00:22.399Z,6.70
2022-11-05T05:02:49.974Z,6.70
2022-11-05T05:05:17.612Z,6.70
2022-11-05T05:07:45.697Z,6.80
2022-11-05T05:10:13.218Z,6.90
2022-11-05T05:12:40.976Z,6.80
2022-11-05T05:15:08.614Z,6.90
2022-11-05T05:17:36.598Z,6.90
2022-11-05T05:20:26.549Z,6.90
2022-11-05T05:22:55.879Z,6.90
2022-11-05T05:25:25.502Z,6.90
2022-11-05T05:27:53.200Z,6.80
2022-11-05T05:30:21.150Z,6.70
2022-11-05T05:32:48.945Z,6.70
2022-11-05T05:35:17.004Z,6.80
2022-11-05T05:37:44.629Z,6.70
2022-11-05T05:40:12.378Z,6.70
2022-11-05T05:42:43.591Z,6.70
2022-11-05T05:45:14.971Z,6.60
2022-11-05T05:47:42.898Z,6.50
2022-11-05T05:50:10.873Z,6.50
2022-11-05T05:52:46.475Z,6.50
2022-11-05T05:55:14.161Z,6.40
2022-11-05T05:57:41.543Z,6.40
2022-11-05T06:00:11.106Z,6.50
2022-11-05T06:02:41.953Z,6.50
2022-11-05T06:05:10.118Z,6.50
2022-11-05T06:07:37.755Z,6.40
2022-11-05T06:10:06.644Z,6.30
2022-11-05T06:12:34.140Z,6.20
2022-11-05T06:15:01.804Z,6.20
2022-11-05T06:17:29.418Z,6.20
2022-11-05T06:19:57.144Z,6.20
2022-11-05T06:22:24.827Z,6.10
2022-11-05T06:24:56.309Z,6.10
2022-11-05T06:27:23.882Z,6.10
2022-11-05T06:29:51.363Z,6.10
2022-11-05T06:32:19.242Z,6.00
2022-11-05T06:34:46.837Z,6.00
2022-11-05T06:37:14.543Z,6.00
2022-11-05T06:39:42.458Z,6.00
2022-11-05T06:42:18.943Z,5.90
2022-11-05T06:44:47.235Z,6.00
2022-11-05T06:47:15.008Z,6.10
2022-11-05T06:49:44.042Z,6.10
2022-11-05T06:52:11.690Z,6.10
2022-11-05T06:54:40.140Z,6.10
2022-11-05T06:57:10.038Z,6.20
2022-11-05T06:59:38.429Z,6.30
2022-11-05T07:02:06.619Z,6.30
2022-11-05T07:04:34.466Z,6.40
2022-11-05T07:07:02.656Z,7.10
2022-11-05T07:09:30.592Z,7.70
2022-11-05T07:11:58.109Z,8.50
2022-11-05T07:14:25.844Z,9.00
2022-11-05T07:16:53.295Z,9.60
2022-11-05T07:19:21.041Z,10.80
2022-11-05T07:21:48.823Z,10.90
2022-11-05T07:24:16.457Z,10.90
2022-11-05T07:26:43.882Z,11.20
2022-11-05T07:29:12.188Z,11.40
2022-11-05T07:31:39.691Z,12.10
2022-11-05T07:34:07.379Z,12.20
2022-11-05T07:36:35.119Z,12.50
2022-11-05T07:39:04.577Z,12.50
2022-11-05T07:41:32.120Z,12.90
2022-11-05T07:43:59.625Z,13.10
2022-11-05T07:46:27.164Z,12.50
2022-11-05T07:48:54.647Z,11.90
2022-11-05T07:51:22.268Z,11.20
2022-11-05T07:53:49.798Z,10.60
2022-11-05T07:56:17.457Z,10.40
2022-11-05T07:58:45.225Z,10.50
2022-11-05T08:01:13.040Z,10.50
2022-11-05T08:03:41.419Z,10.30
2022-11-05T08:06:09.005Z,10.00
2022-11-05T08:08:36.462Z,11.10
2022-11-05T08:11:06.688Z,12.00
2022-11-05T08:13:38.947Z,12.40
2022-11-05T08:16:13.589Z,13.00
2022-11-05T08:18:41.540Z,13.90
2022-11-05T08:21:14.943Z,14.90
2022-11-05T08:23:43.077Z,16.00
2022-11-05T08:26:10.745Z,15.90
2022-11-05T08:28:38.469Z,17.00
2022-11-05T08:31:06.316Z,17.50
2022-11-05T08:33:34.878Z,18.10
2022-11-05T08:36:04.001Z,18.50
2022-11-05T08:38:32.381Z,19.10
2022-11-05T08:41:00.458Z,17.50
2022-11-05T08:43:28.453Z,17.50
2022-11-05T08:45:55.955Z,18.00
2022-11-05T08:48:23.480Z,18.60
2022-11-05T08:50:51.128Z,19.70
2022-11-05T08:53:19.413Z,20.20
2022-11-05T08:55:50.040Z,20.80
2022-11-05T08:58:19.769Z,20.80
2022-11-05T09:00:50.870Z,20.90
2022-11-05T09:03:18.968Z,21.80
2022-11-05T09:05:46.785Z,21.70
2022-11-05T09:08:15.480Z,20.60
2022-11-05T09:10:43.871Z,19.50
2022-11-05T09:13:18.243Z,18.50
2022-11-05T09:15:47.879Z,19.40
2022-11-05T09:18:16.103Z,21.00
2022-11-05T09:20:44.206Z,20.30
2022-11-05T09:23:14.321Z,20.00
2022-11-05T09:25:42.710Z,19.50
2022-11-05T09:28:18.365Z,20.60
2022-11-05T09:30:47.399Z,21.80
2022-11-05T09:33:15.663Z,23.10
2022-11-05T09:35:43.776Z,22.50
2022-11-05T09:38:11.638Z,22.50
2022-11-05T09:40:47.227Z,23.80
2022-11-05T09:43:18.465Z,22.90
2022-11-05T09:45:48.142Z,22.40
2022-11-05T09:48:17.737Z,22.50
2022-11-05T09:50:46.206Z,21.70
2022-11-05T09:53:15.463Z,23.00
2022-11-05T09:55:44.267Z,22.70
2022-11-05T09:58:17.578Z,21.80
2022-11-05T10:00:48.684Z,20.70
2022-11-05T10:03:19.373Z,21.20
2022-11-05T10:05:48.337Z,22.50
2022-11-05T10:08:29.989Z,22.70
2022-11-05T10:11:14.583Z,21.20
2022-11-05T10:13:47.464Z,21.10
2022-11-05T10:16:35.353Z,20.50
2022-11-05T10:19:14.356Z,20.60
2022-11-05T10:22:05.632Z,19.50
2022-11-05T10:24:30.257Z,19.20
2022-11-05T10:26:58.049Z,19.40
2022-11-05T10:29:36.197Z,19.80
2022-11-05T10:32:05.785Z,21.10
2022-11-05T10:34:35.306Z,21.90
2022-11-05T10:37:03.786Z,23.10
2022-11-05T10:39:32.666Z,23.90
2022-11-05T10:42:20.449Z,22.60
2022-11-05T10:44:49.097Z,23.90
2022-11-05T10:47:25.764Z,24.40
2022-11-05T10:50:05.461Z,24.60
2022-11-05T10:52:48.346Z,25.00
2022-11-05T10:55:23.728Z,25.80
2022-11-05T10:57:51.203Z,25.40
2022-11-05T11:00:20.011Z,25.00
2022-11-05T11:02:58.765Z,23.10
2022-11-05T11:05:29.410Z,23.70
2022-11-05T11:08:03.307Z,24.30
2022-11-05T11:10:33.777Z,24.80
2022-11-05T11:13:01.489Z,23.40
2022-11-05T11:15:32.751Z,23.80
2022-11-05T11:18:17.528Z,23.60
2022-11-05T11:20:46.643Z,23.40
2022-11-05T11:23:15.978Z,23.20
2022-11-05T11:25:47.676Z,24.20
2022-11-05T11:28:18.009Z,23.90
2022-11-05T11:31:04.770Z,23.00
2022-11-05T11:33:34.231Z,22.70
2022-11-05T11:36:02.775Z,22.60
2022-11-05T11:38:31.896Z,22.90
2022-11-05T11:41:02.576Z,22.80
2022-11-05T11:43:37.688Z,22.50
2022-11-05T11:46:15.107Z,21.80
2022-11-05T11:48:46.480Z,21.80
2022-11-05T11:51:28.987Z,22.70
2022-11-05T11:53:59.444Z,23.90
2022-11-05T11:56:27.329Z,24.50
2022-11-05T11:59:14.603Z,24.60
2022-11-05T12:02:02.216Z,23.70
2022-11-05T12:04:38.341Z,24.20
2022-11-05T12:07:17.902Z,24.10
2022-11-05T12:09:55.397Z,23.40
2022-11-05T12:12:46.039Z,22.40
2022-11-05T12:15:26.272Z,21.10
2022-11-05T12:17:53.691Z,19.90
2022-11-05T12:20:48.451Z,21.60
2022-11-05T12:23:26.332Z,22.30
2022-11-05T12:25:58.015Z,22.90
2022-11-05T12:29:12.274Z,22.90
2022-11-05T12:31:47.193Z,22.20
2022-11-05T12:34:41.537Z,22.00
2022-11-05T12:37:08.918Z,22.20
2022-11-05T12:39:36.477Z,22.50
2022-11-05T12:42:16.564Z,23.30
2022-11-05T12:44:57.282Z,23.80
2022-11-05T12:47:42.687Z,23.50
2022-11-05T12:50:10.319Z,21.80
2022-11-05T12:52:40.676Z,22.20
2022-11-05T12:55:08.430Z,21.90
2022-11-05T12:57:37.680Z,22.60
2022-11-05T13:00:14.920Z,22.40
2022-11-05T13:02:56.811Z,22.60
2022-11-05T13:05:40.323Z,22.70
2022-11-05T13:08:11.002Z,23.40
2022-11-05T13:10:45.638Z,23.50
2022-11-05T13:13:22.340Z,24.10
2022-11-05T13:15:54.990Z,24.40
2022-11-05T13:18:36.193Z,24.60
2022-11-05T13:21:05.594Z,23.40
2022-11-05T13:23:40.627Z,23.60
2022-11-05T13:26:28.578Z,23.80
2022-11-05T13:29:05.756Z,24.40
2022-11-05T13:31:39.269Z,24.40
2022-11-05T13:34:10.077Z,24.90
2022-11-05T13:37:02.364Z,25.20
2022-11-05T13:39:35.849Z,24.60
2022-11-05T13:42:09.701Z,24.40
2022-11-05T13:44:41.154Z,23.90
2022-11-05T13:47:27.770Z,24.20
2022-11-05T13:50:05.286Z,23.60
2022-11-05T13:52:33.265Z,23.40
2022-11-05T13:55:00.799Z,23.50
2022-11-05T13:57:46.860Z,24.20
2022-11-05T14:00:18.009Z,24.20
2022-11-05T14:02:51.819Z,23.50
2022-11-05T14:05:28.718Z,23.40
2022-11-05T14:07:57.494Z,23.00
2022-11-05T14:10:30.990Z,23.40
2022-11-05T14:12:59.646Z,23.50
2022-11-05T14:15:29.080Z,23.00
2022-11-05T14:18:27.907Z,23.00
2022-11-05T14:21:00.136Z,22.70
2022-11-05T14:23:36.591Z,22.80
2022-11-05T14:26:15.308Z,22.90
2022-11-05T14:28:45.116Z,22.30
2022-11-05T14:31:18.960Z,22.00
2022-11-05T14:34:09.809Z,22.10
2022-11-05T14:36:45.295Z,21.60
2022-11-05T14:39:16.143Z,21.20
2022-11-05T14:42:08.171Z,21.20
2022-11-05T14:44:36.348Z,20.70
2022-11-05T14:47:19.588Z,19.90
2022-11-05T14:49:53.120Z,19.00
2022-11-05T14:52:21.473Z,18.40
2022-11-05T14:54:52.488Z,17.80
2022-11-05T14:57:56.221Z,17.40
2022-11-05T15:00:29.793Z,16.90
2022-11-05T15:02:58.863Z,16.30
2022-11-05T15:05:34.939Z,15.40
2022-11-05T15:08:21.608Z,14.90
2022-11-05T15:10:49.243Z,14.40
2022-11-05T15:13:46.733Z,14.30
2022-11-05T15:16:18.394Z,14.10
2022-11-05T15:18:47.278Z,13.60
2022-11-05T15:21:16.646Z,13.40
2022-11-05T15:23:45.720Z,13.30
2022-11-05T15:26:28.434Z,13.20
2022-11-05T15:28:56.765Z,13.30
2022-11-05T15:31:30.539Z,13.20
2022-11-05T15:34:20.487Z,13.00
2022-11-05T15:36:50.039Z,12.90
2022-11-05T15:39:29.968Z,12.90
2022-11-05T15:41:59.090Z,12.70
2022-11-05T15:44:28.152Z,12.70
2022-11-05T15:54:08.821Z,12.20
2022-11-05T15:56:29.777Z,11.80
2022-11-05T15:59:23.632Z,11.60
2022-11-05T16:02:03.482Z,11.60
2022-11-05T16:04:32.571Z,11.70
2022-11-05T16:07:10.706Z,11.60
2022-11-05T16:09:41.213Z,11.50
2022-11-05T16:12:11.673Z,11.40
2022-11-05T16:14:39.148Z,11.30
2022-11-05T16:17:19.951Z,11.20
2022-11-05T16:19:49.711Z,10.90
2022-11-05T16:22:17.786Z,10.70
2022-11-05T16:24:46.496Z,10.50
2022-11-05T16:27:19.849Z,10.40
2022-11-05T16:29:49.677Z,10.50
2022-11-05T16:32:25.416Z,10.30
2022-11-05T16:34:58.681Z,10.20
2022-11-05T16:37:27.068Z,10.10
2022-11-05T16:39:55.679Z,10.10
2022-11-05T16:42:23.349Z,10.00
2022-11-05T16:44:53.462Z,10.00
2022-11-05T16:47:21.633Z,9.90
2022-11-05T16:49:49.581Z,9.60
2022-11-05T16:52:20.578Z,9.70
2022-11-05T16:54:48.346Z,9.60
2022-11-05T16:57:31.324Z,9.60
2022-11-05T16:59:59.647Z,9.20
2022-11-05T17:02:27.489Z,9.00
2022-11-05T17:04:57.023Z,8.90
2022-11-05T17:07:24.607Z,8.60
2022-11-05T17:09:52.004Z,8.40
2022-11-05T17:12:19.529Z,8.40
2022-11-05T17:14:50.574Z,8.30
2022-11-05T17:17:18.152Z,8.30
2022-11-05T17:19:46.093Z,8.20
2022-11-05T17:22:13.893Z,8.10
2022-11-05T17:24:41.660Z,8.10
2022-11-05T17:27:10.961Z,8.20
2022-11-05T17:29:38.691Z,8.20
2022-11-05T17:32:10.311Z,8.30
2022-11-05T17:34:37.781Z,8.40
2022-11-05T17:37:05.436Z,8.20
2022-11-05T17:39:32.905Z,8.30
2022-11-05T17:42:01.051Z,8.30
2022-11-05T17:44:28.921Z,8.10
2022-11-05T17:46:56.721Z,8.10
2022-11-05T17:49:24.655Z,7.90
2022-11-05T17:51:52.190Z,7.80
2022-11-05T17:54:52.189Z,7.80
2022-11-05T17:57:20.053Z,7.70
2022-11-05T17:59:48.119Z,7.80
2022-11-05T18:02:15.635Z,7.80
2022-11-05T18:04:43.581Z,7.80
2022-11-05T18:07:15.135Z,7.80
2022-11-05T18:09:43.014Z,7.90
2022-11-05T18:12:12.053Z,7.90
2022-11-05T18:14:39.889Z,7.90
2022-11-05T18:17:08.716Z,7.90
2022-11-05T18:19:38.345Z,7.90
2022-11-05T18:22:06.221Z,7.90
2022-11-05T18:24:34.014Z,8.00
2022-11-05T18:27:01.517Z,8.00
2022-11-05T18:29:29.285Z,7.90
2022-11-05T18:31:56.768Z,8.00
2022-11-05T18:34:24.537Z,7.90
2022-11-05T18:36:56.213Z,7.90
2022-11-05T18:39:24.949Z,7.90
2022-11-05T18:41:52.449Z,8.00
2022-11-05T18:44:22.863Z,8.00
2022-11-05T18:46:57.956Z,8.00
2022-11-05T18:49:27.025Z,7.90
2022-11-05T18:51:54.849Z,7.90
2022-11-05T18:54:22.773Z,7.80
2022-11-05T18:56:50.269Z,7.80
2022-11-05T19:02:07.573Z,7.80
2022-11-05T19:04:35.842Z,7.80
2022-11-05T19:07:05.329Z,7.80
2022-11-05T19:09:34.520Z,7.80
2022-11-05T19:12:02.140Z,7.80
2022-11-05T19:14:30.268Z,7.90
2022-11-05T19:17:07.609Z,7.90
2022-11-05T19:19:35.147Z,7.90
2022-11-05T19:22:03.454Z,7.90
2022-11-05T19:24:31.476Z,8.00
2022-11-05T19:26:59.365Z,8.10
2022-11-05T19:29:27.003Z,8.10
2022-11-05T19:31:54.635Z,8.20
2022-11-05T19:34:22.455Z,8.20
2022-11-05T19:36:49.913Z,8.20
2022-11-05T19:39:17.397Z,8.20
2022-11-05T19:41:45.298Z,8.30
2022-11-05T19:44:13.400Z,8.30
2022-11-05T19:46:41.570Z,8.30
2022-11-05T19:49:10.524Z,8.30
2022-11-05T19:51:38.233Z,8.30
2022-11-05T19:54:06.516Z,8.40
2022-11-05T19:56:36.704Z,8.40
2022-11-05T19:59:05.622Z,8.30
2022-11-05T20:01:33.894Z,8.40
2022-11-05T20:04:02.517Z,8.40
2022-11-05T20:06:32.544Z,8.40
2022-11-05T20:11:50.102Z,8.40
2022-11-05T20:14:17.940Z,8.40
2022-11-05T20:16:45.931Z,8.40
2022-11-05T20:19:14.920Z,8.50
2022-11-05T20:21:43.314Z,8.50
2022-11-05T20:24:15.232Z,8.50
2022-11-05T20:26:46.220Z,8.50
2022-11-05T20:29:13.799Z,8.60
2022-11-05T20:31:41.590Z,8.60
2022-11-05T20:34:09.255Z,8.50
2022-11-05T20:36:37.313Z,8.50
2022-11-05T20:39:05.820Z,8.50
2022-11-05T20:41:34.519Z,8.50
2022-11-05T20:44:02.623Z,8.50
2022-11-05T20:46:30.314Z,8.40
2022-11-05T20:48:57.992Z,8.50
2022-11-05T20:51:25.624Z,8.50
2022-11-05T20:53:57.275Z,8.40
2022-11-05T20:56:30.142Z,8.30
2022-11-05T20:58:58.484Z,8.30
2022-11-05T21:01:26.793Z,8.30
2022-11-05T21:03:54.452Z,8.20
2022-11-05T21:06:21.953Z,8.30
2022-11-05T21:08:50.284Z,8.30
2022-11-05T21:11:18.944Z,8.30
2022-11-05T21:13:47.183Z,8.30
2022-11-05T21:16:18.196Z,8.30
2022-11-05T21:18:47.145Z,8.30
2022-11-05T21:21:16.410Z,8.30
2022-11-05T21:23:44.039Z,8.30
2022-11-05T21:26:13.448Z,8.30
2022-11-05T21:28:41.501Z,8.30
2022-11-05T21:31:09.429Z,8.30
2022-11-05T21:33:37.364Z,8.30
2022-11-05T21:36:06.489Z,8.40
2022-11-05T21:38:34.858Z,8.30
2022-11-05T21:41:03.033Z,8.30
2022-11-05T21:43:30.493Z,8.30
2022-11-05T21:46:01.004Z,8.30
2022-11-05T21:48:28.760Z,8.40
2022-11-05T21:51:15.177Z,8.40
2022-11-05T21:54:01.261Z,8.40
2022-11-05T21:56:47.607Z,8.40
2022-11-05T21:59:36.263Z,8.40
2022-11-05T22:02:04.317Z,8.40
2022-11-05T22:04:33.615Z,8.40
2022-11-05T22:07:03.352Z,8.40
2022-11-05T22:09:31.985Z,8.30
2022-11-05T22:11:59.966Z,8.30
2022-11-05T22:14:28.273Z,8.30
2022-11-05T22:16:55.969Z,8.30
2022-11-05T22:19:24.814Z,8.30
2022-11-05T22:21:52.162Z,8.30
2022-11-05T22:24:20.015Z,8.30
2022-11-05T22:26:48.106Z,8.30
2022-11-05T22:29:19.707Z,8.40
2022-11-05T22:31:47.331Z,8.40
2022-11-05T22:34:14.870Z,8.30
2022-11-05T22:36:42.353Z,8.30
2022-11-05T22:39:11.111Z,8.40
2022-11-05T22:41:39.247Z,8.50
2022-11-05T22:44:07.194Z,8.50
2022-11-05T22:46:34.798Z,8.50
2022-11-05T22:49:03.644Z,8.60
2022-11-05T22:51:32.391Z,8.60
2022-11-05T22:54:00.338Z,8.60
2022-11-05T22:56:29.044Z,8.60
2022-11-05T22:58:57.118Z,8.70
2022-11-05T23:01:26.403Z,8.70
2022-11-05T23:03:57.920Z,8.70
2022-11-05T23:06:45.846Z,8.60
2022-11-05T23:09:37.125Z,8.60
2022-11-05T23:12:18.109Z,8.60
2022-11-05T23:14:45.769Z,8.60
2022-11-05T23:17:32.282Z,8.60
2022-11-05T23:20:18.450Z,8.50
2022-11-05T23:23:05.026Z,8.50
2022-11-05T23:25:32.652Z,8.40
2022-11-05T23:28:00.524Z,8.50
2022-11-05T23:30:29.382Z,8.50
2022-11-05T23:32:57.111Z,8.40
2022-11-05T23:35:43.770Z,8.40
2022-11-05T23:38:30.372Z,8.20
2022-11-05T23:41:20.681Z,8.40
2022-11-05T23:44:10.637Z,8.30
2022-11-05T23:46:56.880Z,8.30
2022-11-05T23:49:24.413Z,8.20
2022-11-05T23:51:52.423Z,8.30
2022-11-05T23:54:20.028Z,8.30
2022-11-05T23:56:47.814Z,8.30
2022-11-05T23:59:15.674Z,8.30
